METAR Formatted Surface Weather Observation
Issued by NWS

Home | Current Version | Previous Version | Text Only | Print | Product List | Glossary On
Versions: 1 2 3 4 5 6 7 8 9 10 11 12 13 14 15 16 17 18 19 20 21 22 23 24 25 26 27 28 29 30
402
SAUS41 KAKQ 211755
MTRNUI
METAR KNUI 211753Z AUTO 20009KT 9SM CLR 15/04 A3011 RMK AO2 SLP196
T01500044 10150 20067 58030



USA.gov is the U.S. government's official web portal to all federal, state and local government web resources and services.